createdAt,value
2022-10-19T00:01:10.058Z,100829.11
2022-10-19T00:03:43.901Z,100827.72
2022-10-19T00:06:19.491Z,100821.33
2022-10-19T00:08:52.496Z,100821.80
2022-10-19T00:11:26.619Z,100819.11
2022-10-19T00:14:01.645Z,100816.91
2022-10-19T00:16:36.902Z,100815.28
2022-10-19T00:19:13.286Z,100813.46
2022-10-19T00:21:46.831Z,100813.38
2022-10-19T00:24:20.451Z,100815.11
2022-10-19T00:26:53.490Z,100813.22
2022-10-19T00:29:26.560Z,100813.02
2022-10-19T00:31:59.636Z,100809.91
2022-10-19T00:34:32.720Z,100806.89
2022-10-19T00:37:05.830Z,100809.84
2022-10-19T00:39:39.754Z,100814.19
2022-10-19T00:42:15.194Z,100816.74
2022-10-19T00:45:14.373Z,100812.64
2022-10-19T00:47:48.620Z,100809.90
2022-10-19T00:50:21.997Z,100811.79
2022-10-19T00:52:55.196Z,100815.82
2022-10-19T00:55:28.717Z,100817.55
2022-10-19T00:58:02.314Z,100818.31
2022-10-19T01:00:35.550Z,100821.95
2022-10-19T01:03:10.555Z,100817.40
2022-10-19T01:05:44.413Z,100816.13
2022-10-19T01:08:18.131Z,100814.96
2022-10-19T01:11:02.804Z,100805.61
2022-10-19T01:13:48.358Z,100801.17
2022-10-19T01:16:30.658Z,100799.85
2022-10-19T01:19:16.682Z,100796.55
2022-10-19T01:21:57.813Z,100795.30
2022-10-19T01:24:52.212Z,100791.75
2022-10-19T01:27:54.819Z,100788.13
2022-10-19T01:30:39.039Z,100786.35
2022-10-19T01:33:23.717Z,100785.83
2022-10-19T01:36:04.555Z,100783.57
2022-10-19T01:38:47.798Z,100775.73
2022-10-19T01:41:28.872Z,100773.22
2022-10-19T01:44:10.128Z,100772.02
2022-10-19T01:46:45.496Z,100770.48
2022-10-19T01:49:22.420Z,100771.54
2022-10-19T01:52:00.851Z,100769.83
2022-10-19T01:54:40.037Z,100766.56
2022-10-19T01:57:19.109Z,100766.80
2022-10-19T01:59:53.816Z,100760.86
2022-10-19T02:02:29.566Z,100761.42
2022-10-19T02:05:04.491Z,100758.84
2022-10-19T02:07:40.488Z,100760.30
2022-10-19T02:12:48.477Z,100756.92
2022-10-19T02:15:25.368Z,100752.48
2022-10-19T02:18:02.243Z,100754.71
2022-10-19T02:20:36.450Z,100749.15
2022-10-19T02:23:09.963Z,100743.33
2022-10-19T02:25:43.062Z,100744.34
2022-10-19T02:28:16.255Z,100742.63
2022-10-19T02:30:49.557Z,100744.20
2022-10-19T02:33:22.802Z,100745.70
2022-10-19T02:35:56.515Z,100742.44
2022-10-19T02:38:30.359Z,100738.58
2022-10-19T02:41:09.600Z,100739.64
2022-10-19T02:43:47.067Z,100737.40
2022-10-19T02:46:28.565Z,100735.17
2022-10-19T02:49:03.572Z,100734.73
2022-10-19T02:51:38.514Z,100742.02
2022-10-19T02:54:11.831Z,100742.65
2022-10-19T02:56:44.796Z,100744.97
2022-10-19T02:59:17.693Z,100739.42
2022-10-19T03:01:50.871Z,100740.63
2022-10-19T03:04:23.980Z,100734.55
2022-10-19T03:06:57.425Z,100737.98
2022-10-19T03:09:30.784Z,100736.83
2022-10-19T03:12:04.332Z,100735.91
2022-10-19T03:14:37.358Z,100737.90
2022-10-19T03:17:10.817Z,100736.36
2022-10-19T03:19:43.685Z,100730.64
2022-10-19T03:22:17.799Z,100730.46
2022-10-19T03:24:51.404Z,100730.88
2022-10-19T03:27:24.428Z,100729.50
2022-10-19T03:29:57.440Z,100731.70
2022-10-19T03:32:30.387Z,100726.70
2022-10-19T03:35:03.490Z,100723.59
2022-10-19T03:37:36.747Z,100724.47
2022-10-19T03:40:11.727Z,100724.95
2022-10-19T03:42:44.592Z,100723.55
2022-10-19T03:45:17.714Z,100723.36
2022-10-19T03:47:54.004Z,100718.83
2022-10-19T03:50:27.153Z,100714.27
2022-10-19T03:53:00.323Z,100713.98
2022-10-19T03:55:33.519Z,100713.30
2022-10-19T03:58:06.607Z,100710.77
2022-10-19T04:00:41.555Z,100710.08
2022-10-19T04:03:14.495Z,100708.88
2022-10-19T04:05:47.489Z,100710.00
2022-10-19T04:08:20.663Z,100716.49
2022-10-19T04:10:53.809Z,100710.61
2022-10-19T04:13:26.801Z,100711.76
2022-10-19T04:16:00.451Z,100706.77
2022-10-19T04:18:33.813Z,100705.02
2022-10-19T04:21:07.752Z,100707.80
2022-10-19T04:23:40.642Z,100711.08
2022-10-19T04:26:13.556Z,100708.34
2022-10-19T04:28:46.658Z,100703.26
2022-10-19T04:31:20.031Z,100702.95
2022-10-19T04:33:53.308Z,100699.73
2022-10-19T04:36:26.445Z,100696.64
2022-10-19T04:38:59.475Z,100694.64
2022-10-19T04:41:33.364Z,100693.32
2022-10-19T04:44:07.952Z,100694.70
2022-10-19T04:46:40.933Z,100689.50
2022-10-19T04:49:16.500Z,100687.64
2022-10-19T04:51:51.168Z,100685.91
2022-10-19T04:54:24.470Z,100683.44
2022-10-19T04:56:57.617Z,100684.97
2022-10-19T04:59:30.678Z,100680.70
2022-10-19T05:02:03.649Z,100680.62
2022-10-19T05:04:36.680Z,100679.52
2022-10-19T05:07:09.765Z,100676.48
2022-10-19T05:09:42.954Z,100674.71
2022-10-19T05:12:16.201Z,100678.70
2022-10-19T05:14:49.555Z,100678.14
2022-10-19T05:17:22.587Z,100678.98
2022-10-19T05:19:55.746Z,100681.69
2022-10-19T05:22:28.995Z,100683.29
2022-10-19T05:25:02.424Z,100684.08
2022-10-19T05:27:36.248Z,100680.33
2022-10-19T05:30:11.847Z,100687.19
2022-10-19T05:32:44.759Z,100685.86
2022-10-19T05:35:21.507Z,100683.88
2022-10-19T05:37:59.180Z,100685.53
2022-10-19T05:40:32.401Z,100686.77
2022-10-19T05:43:05.493Z,100686.84
2022-10-19T05:45:38.508Z,100689.80
2022-10-19T05:48:11.692Z,100694.54
2022-10-19T05:50:53.970Z,100697.40
2022-10-19T05:53:27.162Z,100692.01
2022-10-19T05:56:00.419Z,100692.84
2022-10-19T05:58:33.580Z,100687.66
2022-10-19T06:01:06.904Z,100685.69
2022-10-19T06:03:40.202Z,100684.56
2022-10-19T06:06:13.422Z,100684.58
2022-10-19T06:08:46.649Z,100690.23
2022-10-19T06:11:21.472Z,100685.59
2022-10-19T06:13:57.310Z,100682.80
2022-10-19T06:16:32.012Z,100683.27
2022-10-19T06:19:06.201Z,100686.48
2022-10-19T06:21:41.900Z,100681.52
2022-10-19T06:24:18.222Z,100686.61
2022-10-19T06:26:51.302Z,100685.90
2022-10-19T06:29:24.373Z,100685.77
2022-10-19T06:32:00.019Z,100688.51
2022-10-19T06:34:33.403Z,100691.25
2022-10-19T06:37:06.743Z,100690.66
2022-10-19T06:39:39.793Z,100693.30
2022-10-19T06:42:12.967Z,100694.94
2022-10-19T06:44:46.993Z,100692.84
2022-10-19T06:47:20.045Z,100691.08
2022-10-19T06:49:53.381Z,100687.70
2022-10-19T06:52:26.896Z,100683.53
2022-10-19T06:55:00.143Z,100676.81
2022-10-19T06:57:33.986Z,100677.14
2022-10-19T07:00:09.166Z,100680.09
2022-10-19T07:02:42.079Z,100682.76
2022-10-19T07:05:15.077Z,100683.13
2022-10-19T07:07:48.126Z,100680.95
2022-10-19T07:10:21.637Z,100687.93
2022-10-19T07:12:54.694Z,100693.94
2022-10-19T07:15:27.694Z,100692.33
2022-10-19T07:18:00.809Z,100688.58
2022-10-19T07:20:34.138Z,100685.73
2022-10-19T07:23:07.409Z,100682.58
2022-10-19T07:25:41.099Z,100680.77
2022-10-19T07:28:14.238Z,100681.64
2022-10-19T07:30:47.373Z,100680.23
2022-10-19T07:33:20.443Z,100682.20
2022-10-19T07:36:00.279Z,100679.48
2022-10-19T07:38:34.904Z,100679.49
2022-10-19T07:41:10.600Z,100685.71
2022-10-19T07:43:45.140Z,100686.98
2022-10-19T07:46:19.838Z,100682.85
2022-10-19T07:48:53.715Z,100680.58
2022-10-19T07:51:26.767Z,100688.67
2022-10-19T07:54:00.983Z,100688.73
2022-10-19T07:56:34.773Z,100688.64
2022-10-19T07:59:07.942Z,100692.63
2022-10-19T08:01:43.540Z,100701.80
2022-10-19T08:07:11.379Z,100699.29
2022-10-19T08:09:52.935Z,100697.87
2022-10-19T08:12:26.959Z,100698.11
2022-10-19T08:15:00.513Z,100696.77
2022-10-19T08:17:33.722Z,100697.71
2022-10-19T08:20:08.639Z,100698.38
2022-10-19T08:22:42.167Z,100699.08
2022-10-19T08:25:15.281Z,100696.95
2022-10-19T08:27:48.209Z,100697.78
2022-10-19T08:30:21.237Z,100701.52
2022-10-19T08:32:54.188Z,100699.45
2022-10-19T08:35:27.058Z,100697.73
2022-10-19T08:38:02.095Z,100698.20
2022-10-19T08:40:36.403Z,100698.22
2022-10-19T08:43:20.474Z,100696.34
2022-10-19T08:46:01.161Z,100698.33
2022-10-19T08:48:39.556Z,100695.86
2022-10-19T08:51:15.007Z,100697.55
2022-10-19T08:53:55.555Z,100696.47
2022-10-19T08:56:51.542Z,100696.10
2022-10-19T08:59:38.074Z,100697.96
2022-10-19T09:02:19.546Z,100697.86
2022-10-19T09:05:00.237Z,100702.37
2022-10-19T09:07:37.343Z,100704.94
2022-10-19T09:10:20.933Z,100709.05
2022-10-19T09:12:59.694Z,100710.42
2022-10-19T09:15:40.729Z,100714.77
2022-10-19T09:18:16.652Z,100709.02
2022-10-19T09:20:52.482Z,100709.81
2022-10-19T09:23:31.281Z,100712.15
2022-10-19T09:26:05.305Z,100713.58
2022-10-19T09:28:48.558Z,100717.23
2022-10-19T09:31:31.440Z,100720.73
2022-10-19T09:34:09.269Z,100719.39
2022-10-19T09:36:52.239Z,100719.58
2022-10-19T09:39:28.557Z,100726.39
2022-10-19T09:42:09.515Z,100728.23
2022-10-19T09:44:42.753Z,100733.48
2022-10-19T09:47:30.897Z,100734.98
2022-10-19T09:50:22.380Z,100732.64
2022-10-19T09:52:58.198Z,100734.48
2022-10-19T09:55:40.116Z,100731.58
2022-10-19T09:58:21.116Z,100732.95
2022-10-19T10:00:56.368Z,100732.34
2022-10-19T10:03:32.536Z,100735.72
2022-10-19T10:06:10.094Z,100740.02
2022-10-19T10:08:47.862Z,100744.48
2022-10-19T10:11:29.480Z,100758.30
2022-10-19T10:14:16.934Z,100771.70
2022-10-19T10:16:56.180Z,100775.21
2022-10-19T10:19:33.326Z,100775.17
2022-10-19T10:22:07.228Z,100780.80
2022-10-19T10:24:56.189Z,100780.36
2022-10-19T10:27:38.882Z,100776.16
2022-10-19T10:30:20.497Z,100778.58
2022-10-19T10:32:57.994Z,100776.27
2022-10-19T10:35:37.797Z,100776.75
2022-10-19T10:38:16.632Z,100776.09
2022-10-19T10:40:53.783Z,100777.19
2022-10-19T10:43:32.591Z,100776.11
2022-10-19T10:46:09.836Z,100776.75
2022-10-19T10:48:47.677Z,100773.43
2022-10-19T10:51:30.549Z,100771.41
2022-10-19T10:54:18.335Z,100770.67
2022-10-19T10:57:06.654Z,100777.06
2022-10-19T10:59:47.983Z,100768.71
2022-10-19T11:02:34.297Z,100765.59
2022-10-19T11:05:13.519Z,100773.16
2022-10-19T11:07:48.181Z,100777.75
2022-10-19T11:10:28.267Z,100775.42
2022-10-19T11:13:08.695Z,100769.52
2022-10-19T11:15:49.005Z,100770.05
2022-10-19T11:18:26.922Z,100765.16
2022-10-19T11:21:08.001Z,100762.70
2022-10-19T11:23:51.948Z,100761.82
2022-10-19T11:26:36.975Z,100756.46
2022-10-19T11:29:32.588Z,100751.90
2022-10-19T11:32:14.509Z,100746.97
2022-10-19T11:35:04.552Z,100754.18
2022-10-19T11:38:06.699Z,100755.01
2022-10-19T11:41:16.466Z,100752.58
2022-10-19T11:43:58.316Z,100759.23
2022-10-19T11:46:40.312Z,100761.04
2022-10-19T11:49:29.221Z,100755.77
2022-10-19T11:52:08.919Z,100749.47
2022-10-19T11:55:01.637Z,100760.77
2022-10-19T11:57:51.214Z,100767.27
2022-10-19T12:00:38.676Z,100769.61
2022-10-19T12:03:27.061Z,100771.23
2022-10-19T12:06:13.208Z,100772.02
2022-10-19T12:09:08.943Z,100776.95
2022-10-19T12:11:57.984Z,100779.52
2022-10-19T12:14:37.575Z,100781.63
2022-10-19T12:17:16.557Z,100785.88
2022-10-19T12:19:53.842Z,100783.48
2022-10-19T12:22:30.674Z,100783.75
2022-10-19T12:25:05.215Z,100788.02
2022-10-19T12:27:41.033Z,100791.14
2022-10-19T12:30:18.887Z,100792.95
2022-10-19T12:33:07.421Z,100793.02
2022-10-19T12:36:01.059Z,100793.52
2022-10-19T12:38:46.112Z,100792.65
2022-10-19T12:41:29.133Z,100791.71
2022-10-19T12:44:32.825Z,100789.39
2022-10-19T12:47:13.691Z,100787.30
2022-10-19T12:49:51.237Z,100784.07
2022-10-19T12:52:43.054Z,100784.52
2022-10-19T12:55:30.054Z,100783.56
2022-10-19T12:58:05.975Z,100782.65
2022-10-19T13:00:40.863Z,100785.45
2022-10-19T13:03:26.376Z,100788.30
2022-10-19T13:06:04.494Z,100789.61
2022-10-19T13:08:44.212Z,100790.02
2022-10-19T13:11:18.397Z,100783.30
2022-10-19T13:14:06.589Z,100788.77
2022-10-19T13:17:01.062Z,100789.02
2022-10-19T13:19:34.839Z,100789.86
2022-10-19T13:22:28.791Z,100787.50
2022-10-19T13:25:24.420Z,100793.79
2022-10-19T13:28:02.158Z,100796.58
2022-10-19T13:31:08.224Z,100795.77
2022-10-19T13:33:52.405Z,100796.70
2022-10-19T13:36:28.017Z,100803.08
2022-10-19T13:39:13.722Z,100812.19
2022-10-19T13:41:53.768Z,100817.60
2022-10-19T13:44:31.209Z,100820.98
2022-10-19T13:47:33.308Z,100822.84
2022-10-19T13:50:32.838Z,100822.77
2022-10-19T13:53:25.457Z,100830.38
2022-10-19T13:56:19.251Z,100835.48
2022-10-19T13:59:34.175Z,100841.64
2022-10-19T14:02:36.430Z,100842.08
2022-10-19T14:05:27.246Z,100844.77
2022-10-19T14:08:12.009Z,100852.60
2022-10-19T14:11:00.768Z,100850.54
2022-10-19T14:13:36.558Z,100851.11
2022-10-19T14:16:19.146Z,100852.86
2022-10-19T14:18:58.835Z,100863.02
2022-10-19T14:21:37.217Z,100870.90
2022-10-19T14:24:29.357Z,100877.58
2022-10-19T14:27:05.155Z,100885.14
2022-10-19T14:29:46.360Z,100888.96
2022-10-19T14:32:22.664Z,100889.27
2022-10-19T14:34:59.746Z,100896.31
2022-10-19T14:37:33.521Z,100904.28
2022-10-19T14:40:26.805Z,100903.79
2022-10-19T14:43:03.000Z,100903.97
2022-10-19T14:45:37.589Z,100903.14
2022-10-19T14:48:20.418Z,100902.47
2022-10-19T14:50:57.398Z,100909.05
2022-10-19T14:53:41.677Z,100911.84
2022-10-19T14:56:20.004Z,100916.12
2022-10-19T14:58:59.729Z,100926.09
2022-10-19T15:01:33.143Z,100924.85
2022-10-19T15:04:06.644Z,100929.83
2022-10-19T15:06:43.475Z,100930.98
2022-10-19T15:09:37.174Z,100932.81
2022-10-19T15:12:21.062Z,100932.63
2022-10-19T15:14:55.495Z,100930.64
2022-10-19T15:17:31.734Z,100937.48
2022-10-19T15:20:19.284Z,100938.73
2022-10-19T15:22:52.853Z,100941.97
2022-10-19T15:25:37.315Z,100945.40
2022-10-19T15:28:39.060Z,100950.29
2022-10-19T15:31:21.097Z,100953.79
2022-10-19T15:33:56.537Z,100959.13
2022-10-19T15:36:31.113Z,100960.28
2022-10-19T15:42:35.355Z,100965.91
2022-10-19T15:45:34.101Z,100967.38
2022-10-19T15:48:29.972Z,100973.15
2022-10-19T15:51:03.596Z,100978.08
2022-10-19T15:53:36.945Z,100985.10
2022-10-19T15:56:13.549Z,100994.30
2022-10-19T15:58:54.227Z,100996.02
2022-10-19T16:01:30.142Z,100999.29
2022-10-19T16:04:03.809Z,100999.66
2022-10-19T16:06:38.537Z,101003.41
2022-10-19T16:09:20.425Z,101007.98
2022-10-19T16:11:57.859Z,101013.04
2022-10-19T16:14:34.364Z,101014.48
2022-10-19T16:17:12.459Z,101022.73
2022-10-19T16:19:46.402Z,101027.02
2022-10-19T16:22:20.495Z,101033.88
2022-10-19T16:24:53.822Z,101036.73
2022-10-19T16:27:27.416Z,101036.34
2022-10-19T16:30:01.168Z,101036.10
2022-10-19T16:32:35.180Z,101040.07
2022-10-19T16:35:10.901Z,101042.42
2022-10-19T16:37:45.349Z,101043.98
2022-10-19T16:40:18.936Z,101042.21
2022-10-19T16:42:52.692Z,101040.64
2022-10-19T16:45:26.743Z,101045.36
2022-10-19T16:48:01.108Z,101052.34
2022-10-19T16:50:35.303Z,101054.72
2022-10-19T16:53:12.456Z,101053.16
2022-10-19T16:55:45.869Z,101066.21
2022-10-19T16:58:19.561Z,101066.94
2022-10-19T17:00:53.537Z,101069.00
2022-10-19T17:03:28.512Z,101070.71
2022-10-19T17:06:03.147Z,101076.16
2022-10-19T17:09:02.668Z,101083.00
2022-10-19T17:11:34.546Z,101089.17
2022-10-19T17:14:10.903Z,101090.85
2022-10-19T17:16:44.351Z,101091.05
2022-10-19T17:19:18.119Z,101095.16
2022-10-19T17:21:51.954Z,101096.46
2022-10-19T17:24:27.360Z,101098.11
2022-10-19T17:27:04.718Z,101106.39
2022-10-19T17:29:39.104Z,101109.79
2022-10-19T17:32:13.545Z,101108.80
2022-10-19T17:34:47.966Z,101114.26
2022-10-19T17:37:21.639Z,101116.33
2022-10-19T17:39:56.076Z,101118.88
2022-10-19T17:42:30.927Z,101121.55
2022-10-19T17:45:05.259Z,101123.85
2022-10-19T17:47:39.700Z,101124.73
2022-10-19T17:50:14.078Z,101121.82
2022-10-19T17:52:47.717Z,101124.59
2022-10-19T17:55:25.915Z,101128.36
2022-10-19T17:57:59.683Z,101132.14
2022-10-19T18:00:33.455Z,101132.58
2022-10-19T18:03:07.849Z,101135.14
2022-10-19T18:05:42.119Z,101135.23
2022-10-19T18:08:16.706Z,101140.81
2022-10-19T18:10:57.190Z,101142.33
2022-10-19T18:13:32.186Z,101139.09
2022-10-19T18:16:08.013Z,101144.30
2022-10-19T18:18:44.607Z,101146.70
2022-10-19T18:21:21.106Z,101151.30
2022-10-19T18:23:57.220Z,101148.48
2022-10-19T18:26:33.725Z,101148.56
2022-10-19T18:29:14.004Z,101146.38
2022-10-19T18:31:52.044Z,101145.92
2022-10-19T18:34:28.752Z,101144.44
2022-10-19T18:37:02.607Z,101142.44
2022-10-19T18:39:37.751Z,101145.84
2022-10-19T18:42:13.483Z,101150.52
2022-10-19T18:44:57.556Z,101152.81
2022-10-19T18:47:32.665Z,101160.61
2022-10-19T18:50:09.037Z,101168.86
2022-10-19T18:52:44.023Z,101171.58
2022-10-19T18:55:18.239Z,101172.39
2022-10-19T18:57:54.150Z,101169.56
2022-10-19T19:00:28.314Z,101169.57
2022-10-19T19:03:04.639Z,101167.91
2022-10-19T19:05:38.365Z,101164.60
2022-10-19T19:08:15.945Z,101166.20
2022-10-19T19:10:50.016Z,101168.83
2022-10-19T19:13:24.423Z,101175.96
2022-10-19T19:16:02.136Z,101182.48
2022-10-19T19:18:37.228Z,101183.98
2022-10-19T19:21:18.018Z,101188.45
2022-10-19T19:23:53.298Z,101192.59
2022-10-19T19:26:29.398Z,101195.88
2022-10-19T19:29:04.184Z,101200.98
2022-10-19T19:31:40.081Z,101203.56
2022-10-19T19:34:14.620Z,101207.20
2022-10-19T19:36:49.834Z,101206.54
2022-10-19T19:39:28.189Z,101213.54
2022-10-19T19:42:02.384Z,101219.42
2022-10-19T19:44:37.706Z,101223.38
2022-10-19T19:47:12.981Z,101222.60
2022-10-19T19:49:50.181Z,101226.13
2022-10-19T19:52:24.750Z,101233.52
2022-10-19T19:54:58.694Z,101238.38
2022-10-19T19:57:33.678Z,101240.70
2022-10-19T20:00:10.990Z,101243.20
2022-10-19T20:02:52.992Z,101249.91
2022-10-19T20:05:27.783Z,101247.79
2022-10-19T20:08:01.520Z,101248.46
2022-10-19T20:10:35.612Z,101251.11
2022-10-19T20:13:09.848Z,101252.65
2022-10-19T20:15:43.567Z,101258.44
2022-10-19T20:18:17.326Z,101263.27
2022-10-19T20:20:54.211Z,101263.59
2022-10-19T20:23:29.450Z,101260.77
2022-10-19T20:26:04.124Z,101262.71
2022-10-19T20:28:38.032Z,101266.92
2022-10-19T20:31:13.124Z,101273.83
2022-10-19T20:33:48.706Z,101278.77
2022-10-19T20:36:25.455Z,101281.18
2022-10-19T20:39:00.769Z,101280.46
2022-10-19T20:41:35.442Z,101287.25
2022-10-19T20:44:08.958Z,101286.32
2022-10-19T20:46:43.109Z,101288.44
2022-10-19T20:49:18.624Z,101285.55
2022-10-19T20:51:54.935Z,101288.23
2022-10-19T20:54:28.635Z,101290.48
2022-10-19T20:57:02.136Z,101294.60
2022-10-19T20:59:37.675Z,101292.09
2022-10-19T21:02:13.527Z,101291.30
2022-10-19T21:04:47.948Z,101291.56
2022-10-19T21:07:21.270Z,101296.91
2022-10-19T21:09:55.545Z,101294.48
2022-10-19T21:12:28.891Z,101301.74
2022-10-19T21:15:02.240Z,101307.73
2022-10-19T21:17:35.821Z,101309.83
2022-10-19T21:20:10.944Z,101309.89
2022-10-19T21:22:44.451Z,101306.98
2022-10-19T21:25:18.390Z,101310.86
2022-10-19T21:27:54.817Z,101311.94
2022-10-19T21:30:28.515Z,101312.71
2022-10-19T21:33:01.941Z,101310.08
2022-10-19T21:35:37.139Z,101313.14
2022-10-19T21:38:11.019Z,101312.92
2022-10-19T21:40:44.488Z,101306.70
2022-10-19T21:43:18.114Z,101306.81
2022-10-19T21:45:51.530Z,101309.39
2022-10-19T21:48:25.530Z,101311.38
2022-10-19T21:50:58.949Z,101311.75
2022-10-19T21:53:32.270Z,101306.91
2022-10-19T21:56:05.563Z,101308.55
2022-10-19T21:58:38.958Z,101310.63
2022-10-19T22:01:12.005Z,101309.34
2022-10-19T22:03:45.445Z,101310.11
2022-10-19T22:06:37.756Z,101310.85
2022-10-19T22:09:13.309Z,101314.59
2022-10-19T22:11:47.870Z,101319.19
2022-10-19T22:14:21.821Z,101316.27
2022-10-19T22:16:55.077Z,101313.00
2022-10-19T22:19:28.750Z,101313.60
2022-10-19T22:22:02.532Z,101317.95
2022-10-19T22:24:36.340Z,101320.12
2022-10-19T22:27:09.257Z,101319.81
2022-10-19T22:29:42.892Z,101322.25
2022-10-19T22:32:16.312Z,101327.98
2022-10-19T22:34:49.849Z,101329.17
2022-10-19T22:37:23.361Z,101332.77
2022-10-19T22:39:56.497Z,101333.25
2022-10-19T22:42:31.204Z,101335.10
2022-10-19T22:45:05.215Z,101338.42
2022-10-19T22:47:38.975Z,101340.58
2022-10-19T22:50:13.107Z,101340.89
2022-10-19T22:52:46.482Z,101339.75
2022-10-19T22:55:20.127Z,101341.27
2022-10-19T22:57:53.855Z,101346.46
2022-10-19T23:00:27.660Z,101346.03
2022-10-19T23:03:01.336Z,101344.41
2022-10-19T23:05:35.469Z,101344.89
2022-10-19T23:08:09.320Z,101348.67
2022-10-19T23:10:42.897Z,101350.56
2022-10-19T23:13:16.173Z,101355.13
2022-10-19T23:15:50.836Z,101352.37
2022-10-19T23:18:24.701Z,101352.92
2022-10-19T23:21:00.367Z,101359.59
2022-10-19T23:23:34.994Z,101364.75
2022-10-19T23:26:10.995Z,101368.14
2022-10-19T23:28:46.871Z,101372.96
2022-10-19T23:31:24.000Z,101371.60
2022-10-19T23:33:58.181Z,101372.33
2022-10-19T23:36:32.494Z,101375.13
2022-10-19T23:39:06.145Z,101380.28
2022-10-19T23:41:39.717Z,101381.58
2022-10-19T23:44:12.884Z,101389.18
2022-10-19T23:46:46.177Z,101389.86
2022-10-19T23:49:19.615Z,101395.81
2022-10-19T23:51:53.067Z,101395.11
2022-10-19T23:54:26.898Z,101397.51
2022-10-19T23:57:00.103Z,101400.05
2022-10-19T23:59:33.503Z,101404.64
